sensor_id;sensor_type;location;lat;lon;timestamp;pressure;altitude;pressure_sealevel;temperature;humidity
71145;BME280;58812;47.698;17.726;2024-03-23T00:53:07;99714.41;;;10.55;82.34
71145;BME280;58812;47.698;17.726;2024-03-23T00:55:33;99712.22;;;10.51;82.58
71145;BME280;58812;47.698;17.726;2024-03-23T00:57:58;99713.22;;;10.50;82.67
71145;BME280;58812;47.698;17.726;2024-03-23T01:00:23;99709.38;;;10.52;82.74
71145;BME280;58812;47.698;17.726;2024-03-23T01:02:49;99713.44;;;10.64;82.31
71145;BME280;58812;47.698;17.726;2024-03-23T01:05:14;99710.59;;;10.58;82.64
71145;BME280;58812;47.698;17.726;2024-03-23T01:07:40;99712.84;;;10.79;81.65
71145;BME280;58812;47.698;17.726;2024-03-23T01:10:05;99710.97;;;10.71;82.09
71145;BME280;58812;47.698;17.726;2024-03-23T01:12:31;99709.66;;;10.75;82.09
71145;BME280;58812;47.698;17.726;2024-03-23T01:14:56;99700.34;;;10.95;80.87
71145;BME280;58812;47.698;17.726;2024-03-23T01:17:21;99708.53;;;10.94;80.89
71145;BME280;58812;47.698;17.726;2024-03-23T01:19:47;99702.66;;;10.90;81.27
71145;BME280;58812;47.698;17.726;2024-03-23T01:22:12;99690.63;;;10.86;81.51
71145;BME280;58812;47.698;17.726;2024-03-23T01:24:38;99688.94;;;10.85;81.64
71145;BME280;58812;47.698;17.726;2024-03-23T01:27:03;99688.94;;;10.85;81.79
71145;BME280;58812;47.698;17.726;2024-03-23T01:29:29;99682.59;;;10.86;81.83
71145;BME280;58812;47.698;17.726;2024-03-23T01:31:54;99674.75;;;10.93;81.36
71145;BME280;58812;47.698;17.726;2024-03-23T01:34:20;99677.25;;;10.94;81.49
71145;BME280;58812;47.698;17.726;2024-03-23T01:36:46;99678.56;;;10.90;81.68
71145;BME280;58812;47.698;17.726;2024-03-23T01:39:12;99673.37;;;10.89;81.90
71145;BME280;58812;47.698;17.726;2024-03-23T01:41:37;99668.56;;;10.92;81.68
71145;BME280;58812;47.698;17.726;2024-03-23T01:44:07;99664.34;;;10.90;81.81
71145;BME280;58812;47.698;17.726;2024-03-23T01:46:33;99663.31;;;10.83;82.49
71145;BME280;58812;47.698;17.726;2024-03-23T01:48:59;99662.50;;;10.90;82.10
71145;BME280;58812;47.698;17.726;2024-03-23T01:51:26;99666.19;;;10.89;82.26
71145;BME280;58812;47.698;17.726;2024-03-23T01:53:52;99659.16;;;10.96;82.06
71145;BME280;58812;47.698;17.726;2024-03-23T01:56:20;99654.81;;;10.95;82.06
71145;BME280;58812;47.698;17.726;2024-03-23T01:58:45;99658.31;;;10.96;82.15
71145;BME280;58812;47.698;17.726;2024-03-23T02:01:10;99656.19;;;11.08;81.48
71145;BME280;58812;47.698;17.726;2024-03-23T02:03:36;99653.66;;;11.06;81.66
71145;BME280;58812;47.698;17.726;2024-03-23T02:06:02;99649.97;;;11.07;81.64
71145;BME280;58812;47.698;17.726;2024-03-23T02:08:27;99642.47;;;11.19;80.89
71145;BME280;58812;47.698;17.726;2024-03-23T02:10:53;99645.50;;;11.24;80.57
71145;BME280;58812;47.698;17.726;2024-03-23T02:13:19;99642.81;;;11.32;80.02
71145;BME280;58812;47.698;17.726;2024-03-23T02:15:44;99639.16;;;11.33;79.92
71145;BME280;58812;47.698;17.726;2024-03-23T02:18:10;99641.47;;;11.36;79.84
71145;BME280;58812;47.698;17.726;2024-03-23T02:20:36;99637.28;;;11.26;80.59
71145;BME280;58812;47.698;17.726;2024-03-23T02:23:03;99633.75;;;11.25;80.73
71145;BME280;58812;47.698;17.726;2024-03-23T02:25:28;99626.72;;;11.32;80.05
71145;BME280;58812;47.698;17.726;2024-03-23T02:27:54;99628.41;;;11.49;79.00
71145;BME280;58812;47.698;17.726;2024-03-23T02:30:20;99625.25;;;11.46;79.14
71145;BME280;58812;47.698;17.726;2024-03-23T02:32:45;99624.56;;;11.36;79.86
71145;BME280;58812;47.698;17.726;2024-03-23T02:35:11;99621.38;;;11.32;79.84
71145;BME280;58812;47.698;17.726;2024-03-23T02:37:36;99618.38;;;11.27;80.31
71145;BME280;58812;47.698;17.726;2024-03-23T02:40:02;99607.97;;;11.24;80.37
71145;BME280;58812;47.698;17.726;2024-03-23T02:42:28;99599.94;;;11.24;80.25
71145;BME280;58812;47.698;17.726;2024-03-23T02:44:53;99601.62;;;11.17;80.69
71145;BME280;58812;47.698;17.726;2024-03-23T02:47:19;99600.75;;;11.08;81.21
71145;BME280;58812;47.698;17.726;2024-03-23T02:49:44;99593.38;;;11.02;81.43
71145;BME280;58812;47.698;17.726;2024-03-23T02:52:10;99591.91;;;11.00;81.60
71145;BME280;58812;47.698;17.726;2024-03-23T02:54:35;99588.38;;;10.99;81.71
71145;BME280;58812;47.698;17.726;2024-03-23T02:57:01;99582.84;;;10.92;82.08
71145;BME280;58812;47.698;17.726;2024-03-23T02:59:26;99580.84;;;10.86;82.65
71145;BME280;58812;47.698;17.726;2024-03-23T03:01:52;99576.13;;;10.80;82.95
71145;BME280;58812;47.698;17.726;2024-03-23T03:04:17;99574.78;;;10.84;82.95
71145;BME280;58812;47.698;17.726;2024-03-23T03:06:46;99568.09;;;10.80;83.05
71145;BME280;58812;47.698;17.726;2024-03-23T03:09:12;99568.78;;;10.82;83.06
71145;BME280;58812;47.698;17.726;2024-03-23T03:11:37;99565.75;;;10.77;83.18
71145;BME280;58812;47.698;17.726;2024-03-23T03:14:02;99564.06;;;10.76;83.37
71145;BME280;58812;47.698;17.726;2024-03-23T03:16:28;99566.56;;;10.69;83.82
71145;BME280;58812;47.698;17.726;2024-03-23T03:18:54;99559.56;;;10.68;83.85
71145;BME280;58812;47.698;17.726;2024-03-23T03:21:19;99563.25;;;10.67;83.95
71145;BME280;58812;47.698;17.726;2024-03-23T03:23:44;99556.88;;;10.68;83.89
71145;BME280;58812;47.698;17.726;2024-03-23T03:26:10;99563.72;;;10.63;84.37
71145;BME280;58812;47.698;17.726;2024-03-23T03:28:35;99560.22;;;10.62;84.40
71145;BME280;58812;47.698;17.726;2024-03-23T03:31:01;99558.19;;;10.64;84.36
71145;BME280;58812;47.698;17.726;2024-03-23T03:33:27;99557.69;;;10.61;84.70
71145;BME280;58812;47.698;17.726;2024-03-23T03:35:52;99561.38;;;10.60;84.80
71145;BME280;58812;47.698;17.726;2024-03-23T03:38:18;99548.31;;;10.57;84.82
71145;BME280;58812;47.698;17.726;2024-03-23T03:40:44;99552.31;;;10.61;84.89
71145;BME280;58812;47.698;17.726;2024-03-23T03:43:09;99541.63;;;10.61;84.91
71145;BME280;58812;47.698;17.726;2024-03-23T03:45:34;99539.62;;;10.63;85.18
71145;BME280;58812;47.698;17.726;2024-03-23T03:48:00;99539.94;;;10.60;85.47
71145;BME280;58812;47.698;17.726;2024-03-23T03:50:25;99542.63;;;10.60;85.49
71145;BME280;58812;47.698;17.726;2024-03-23T03:52:51;99531.59;;;10.63;85.35
71145;BME280;58812;47.698;17.726;2024-03-23T03:55:16;99522.41;;;10.65;85.10
71145;BME280;58812;47.698;17.726;2024-03-23T03:57:41;99527.75;;;10.65;85.22
71145;BME280;58812;47.698;17.726;2024-03-23T04:00:07;99515.72;;;10.69;85.17
71145;BME280;58812;47.698;17.726;2024-03-23T04:02:37;99519.75;;;10.74;84.74
71145;BME280;58812;47.698;17.726;2024-03-23T04:05:02;99511.53;;;10.75;84.79
71145;BME280;58812;47.698;17.726;2024-03-23T04:07:28;99504.53;;;10.74;84.80
71145;BME280;58812;47.698;17.726;2024-03-23T04:09:54;99508.69;;;10.77;84.64
71145;BME280;58812;47.698;17.726;2024-03-23T04:12:19;99506.53;;;10.88;83.93
71145;BME280;58812;47.698;17.726;2024-03-23T04:14:45;99502.66;;;10.91;83.83
71145;BME280;58812;47.698;17.726;2024-03-23T04:17:11;99506.37;;;10.98;83.29
71145;BME280;58812;47.698;17.726;2024-03-23T04:19:36;99510.69;;;11.07;82.74
71145;BME280;58812;47.698;17.726;2024-03-23T04:22:02;99508.69;;;11.01;83.18
71145;BME280;58812;47.698;17.726;2024-03-23T04:24:29;99507.84;;;11.01;83.18
71145;BME280;58812;47.698;17.726;2024-03-23T04:26:54;99510.72;;;10.99;83.22
71145;BME280;58812;47.698;17.726;2024-03-23T04:29:20;99510.22;;;11.04;82.85
71145;BME280;58812;47.698;17.726;2024-03-23T04:31:45;99506.16;;;11.08;82.74
71145;BME280;58812;47.698;17.726;2024-03-23T04:34:11;99507.69;;;11.10;82.44
71145;BME280;58812;47.698;17.726;2024-03-23T04:36:36;99503.50;;;11.08;82.69
71145;BME280;58812;47.698;17.726;2024-03-23T04:39:02;99509.69;;;11.08;82.35
71145;BME280;58812;47.698;17.726;2024-03-23T04:41:28;99510.53;;;11.17;81.84
71145;BME280;58812;47.698;17.726;2024-03-23T04:43:53;99512.19;;;11.18;81.77
71145;BME280;58812;47.698;17.726;2024-03-23T04:46:19;99513.03;;;11.18;81.82
71145;BME280;58812;47.698;17.726;2024-03-23T04:48:46;99506.50;;;11.13;82.28
71145;BME280;58812;47.698;17.726;2024-03-23T04:51:11;99503.00;;;11.12;82.37
71145;BME280;58812;47.698;17.726;2024-03-23T04:53:46;99503.50;;;11.16;82.07
71145;BME280;58812;47.698;17.726;2024-03-23T04:56:11;99497.47;;;11.14;81.94
71145;BME280;58812;47.698;17.726;2024-03-23T04:58:37;99504.16;;;11.18;82.09
71145;BME280;58812;47.698;17.726;2024-03-23T05:01:02;99500.66;;;11.17;82.09
71145;BME280;58812;47.698;17.726;2024-03-23T05:03:28;99505.19;;;11.17;82.20
71145;BME280;58812;47.698;17.726;2024-03-23T05:05:54;99495.78;;;11.13;82.52
71145;BME280;58812;47.698;17.726;2024-03-23T05:08:19;99500.31;;;11.20;81.77
71145;BME280;58812;47.698;17.726;2024-03-23T05:10:44;99493.78;;;11.23;81.53
71145;BME280;58812;47.698;17.726;2024-03-23T05:13:11;99495.12;;;11.19;81.99
71145;BME280;58812;47.698;17.726;2024-03-23T05:15:37;99500.31;;;11.20;81.98
71145;BME280;58812;47.698;17.726;2024-03-23T05:18:02;99488.25;;;11.24;81.66
71145;BME280;58812;47.698;17.726;2024-03-23T05:20:28;99496.44;;;11.31;81.40
71145;BME280;58812;47.698;17.726;2024-03-23T05:22:57;99487.06;;;11.35;81.25
71145;BME280;58812;47.698;17.726;2024-03-23T05:25:22;99490.53;;;11.44;81.06
71145;BME280;58812;47.698;17.726;2024-03-23T05:27:48;99485.84;;;11.54;80.32
71145;BME280;58812;47.698;17.726;2024-03-23T05:30:14;99489.00;;;11.66;79.85
71145;BME280;58812;47.698;17.726;2024-03-23T05:32:39;99482.94;;;11.72;79.17
71145;BME280;58812;47.698;17.726;2024-03-23T05:35:09;99480.56;;;11.77;79.18
71145;BME280;58812;47.698;17.726;2024-03-23T05:37:34;99474.03;;;11.88;78.67
71145;BME280;58812;47.698;17.726;2024-03-23T05:40:00;99470.78;;;12.00;77.58
71145;BME280;58812;47.698;17.726;2024-03-23T05:42:25;99468.41;;;12.06;77.40
71145;BME280;58812;47.698;17.726;2024-03-23T05:44:51;99473.38;;;12.17;76.64
71145;BME280;58812;47.698;17.726;2024-03-23T05:47:17;99472.38;;;12.18;76.61
71145;BME280;58812;47.698;17.726;2024-03-23T05:49:43;99467.31;;;12.23;75.75
71145;BME280;58812;47.698;17.726;2024-03-23T05:52:09;99463.62;;;12.24;75.96
71145;BME280;58812;47.698;17.726;2024-03-23T05:54:35;99467.13;;;12.24;75.53
71145;BME280;58812;47.698;17.726;2024-03-23T05:57:00;99465.09;;;12.26;75.22
71145;BME280;58812;47.698;17.726;2024-03-23T05:59:26;99468.78;;;12.25;75.21
71145;BME280;58812;47.698;17.726;2024-03-23T06:01:52;99465.22;;;12.33;74.21
71145;BME280;58812;47.698;17.726;2024-03-23T06:04:17;99470.25;;;12.36;74.54
71145;BME280;58812;47.698;17.726;2024-03-23T06:06:43;99460.84;;;12.40;74.87
71145;BME280;58812;47.698;17.726;2024-03-23T06:09:08;99465.50;;;12.46;74.69
71145;BME280;58812;47.698;17.726;2024-03-23T06:11:34;99465.44;;;12.54;75.11
71145;BME280;58812;47.698;17.726;2024-03-23T06:13:59;99465.00;;;12.66;75.43
71145;BME280;58812;47.698;17.726;2024-03-23T06:16:24;99460.94;;;12.93;73.43
71145;BME280;58812;47.698;17.726;2024-03-23T06:18:50;99461.13;;;13.29;72.63
71145;BME280;58812;47.698;17.726;2024-03-23T06:21:16;99460.47;;;13.27;71.30
71145;BME280;58812;47.698;17.726;2024-03-23T06:23:42;99458.00;;;13.40;72.00
71145;BME280;58812;47.698;17.726;2024-03-23T06:26:08;99461.69;;;13.39;71.15
71145;BME280;58812;47.698;17.726;2024-03-23T06:28:34;99460.50;;;13.42;71.79
71145;BME280;58812;47.698;17.726;2024-03-23T06:30:59;99462.63;;;13.46;70.76
71145;BME280;58812;47.698;17.726;2024-03-23T06:33:24;99456.03;;;13.49;67.76
71145;BME280;58812;47.698;17.726;2024-03-23T06:35:53;99457.97;;;13.55;68.32
71145;BME280;58812;47.698;17.726;2024-03-23T06:38:18;99466.53;;;13.58;69.18
71145;BME280;58812;47.698;17.726;2024-03-23T06:40:44;99459.94;;;13.61;68.52
71145;BME280;58812;47.698;17.726;2024-03-23T06:43:15;99462.50;;;13.69;68.08
71145;BME280;58812;47.698;17.726;2024-03-23T06:45:41;99456.31;;;13.69;68.80
71145;BME280;58812;47.698;17.726;2024-03-23T06:48:06;99461.88;;;13.67;69.35
71145;BME280;58812;47.698;17.726;2024-03-23T06:50:33;99459.81;;;13.69;68.20
71145;BME280;58812;47.698;17.726;2024-03-23T06:52:59;99458.63;;;13.72;68.78
71145;BME280;58812;47.698;17.726;2024-03-23T06:55:24;99452.03;;;13.74;68.16
71145;BME280;58812;47.698;17.726;2024-03-23T06:57:52;99444.44;;;13.78;67.29
71145;BME280;58812;47.698;17.726;2024-03-23T07:00:17;99440.78;;;13.85;68.14
71145;BME280;58812;47.698;17.726;2024-03-23T07:02:43;99440.44;;;13.88;69.24
71145;BME280;58812;47.698;17.726;2024-03-23T07:05:10;99436.91;;;13.88;68.36
71145;BME280;58812;47.698;17.726;2024-03-23T07:07:36;99437.56;;;13.90;67.51
71145;BME280;58812;47.698;17.726;2024-03-23T07:10:01;99439.28;;;13.98;67.27
71145;BME280;58812;47.698;17.726;2024-03-23T07:12:28;99436.69;;;14.04;66.61
71145;BME280;58812;47.698;17.726;2024-03-23T07:14:53;99424.25;;;14.03;66.96
71145;BME280;58812;47.698;17.726;2024-03-23T07:17:19;99435.28;;;14.08;66.22
71145;BME280;58812;47.698;17.726;2024-03-23T07:19:44;99437.63;;;14.11;65.65
71145;BME280;58812;47.698;17.726;2024-03-23T07:22:10;99441.56;;;14.15;65.87
71145;BME280;58812;47.698;17.726;2024-03-23T07:24:35;99443.16;;;14.10;65.15
71145;BME280;58812;47.698;17.726;2024-03-23T07:27:01;99444.47;;;14.14;65.88
71145;BME280;58812;47.698;17.726;2024-03-23T07:29:28;99442.47;;;14.23;66.76
71145;BME280;58812;47.698;17.726;2024-03-23T07:31:53;99446.31;;;14.13;65.42
71145;BME280;58812;47.698;17.726;2024-03-23T07:34:19;99433.88;;;14.12;65.08
71145;BME280;58812;47.698;17.726;2024-03-23T07:36:45;99436.84;;;14.18;65.19
71145;BME280;58812;47.698;17.726;2024-03-23T07:39:10;99433.56;;;14.22;65.48
71145;BME280;58812;47.698;17.726;2024-03-23T07:41:36;99435.13;;;14.31;65.70
71145;BME280;58812;47.698;17.726;2024-03-23T07:44:02;99432.03;;;14.49;64.68
71145;BME280;58812;47.698;17.726;2024-03-23T07:46:27;99440.50;;;14.67;64.63
71145;BME280;58812;47.698;17.726;2024-03-23T07:48:53;99437.28;;;14.79;63.51
71145;BME280;58812;47.698;17.726;2024-03-23T07:51:21;99435.09;;;14.67;63.42
71145;BME280;58812;47.698;17.726;2024-03-23T07:53:47;99435.66;;;14.63;64.79
71145;BME280;58812;47.698;17.726;2024-03-23T07:56:14;99428.41;;;14.63;63.46
71145;BME280;58812;47.698;17.726;2024-03-23T07:58:44;99430.94;;;14.65;64.65
71145;BME280;58812;47.698;17.726;2024-03-23T08:01:14;99424.53;;;14.94;64.48
71145;BME280;58812;47.698;17.726;2024-03-23T08:03:42;99425.75;;;15.13;63.63
71145;BME280;58812;47.698;17.726;2024-03-23T08:08:41;99427.22;;;14.94;63.33
71145;BME280;58812;47.698;17.726;2024-03-23T08:11:07;99427.59;;;15.12;62.97
71145;BME280;58812;47.698;17.726;2024-03-23T08:13:34;99432.41;;;15.52;62.33
71145;BME280;58812;47.698;17.726;2024-03-23T08:16:01;99429.53;;;15.94;60.02
71145;BME280;58812;47.698;17.726;2024-03-23T08:18:27;99431.88;;;16.17;58.91
71145;BME280;58812;47.698;17.726;2024-03-23T08:21:08;99420.25;;;16.17;58.08
71145;BME280;58812;47.698;17.726;2024-03-23T08:23:34;99418.53;;;15.89;57.58
71145;BME280;58812;47.698;17.726;2024-03-23T08:26:07;99409.47;;;16.17;58.44
71145;BME280;58812;47.698;17.726;2024-03-23T08:28:34;99407.66;;;15.83;58.66
71145;BME280;58812;47.698;17.726;2024-03-23T08:31:10;99404.69;;;15.64;59.23
71145;BME280;58812;47.698;17.726;2024-03-23T08:33:37;99401.31;;;15.56;60.00
71145;BME280;58812;47.698;17.726;2024-03-23T08:36:05;99406.25;;;15.52;59.74
71145;BME280;58812;47.698;17.726;2024-03-23T08:38:31;99395.41;;;15.39;60.55
71145;BME280;58812;47.698;17.726;2024-03-23T08:41:07;99398.06;;;15.32;60.88
71145;BME280;58812;47.698;17.726;2024-03-23T08:43:36;99396.22;;;15.39;60.73
71145;BME280;58812;47.698;17.726;2024-03-23T08:46:15;99390.00;;;15.39;61.05
71145;BME280;58812;47.698;17.726;2024-03-23T08:48:42;99399.97;;;15.38;60.58
71145;BME280;58812;47.698;17.726;2024-03-23T08:51:09;99393.19;;;15.14;61.67
71145;BME280;58812;47.698;17.726;2024-03-23T08:53:35;99391.28;;;15.08;61.74
71145;BME280;58812;47.698;17.726;2024-03-23T08:56:02;99383.03;;;15.16;61.32
71145;BME280;58812;47.698;17.726;2024-03-23T08:58:29;99379.28;;;15.17;61.52
71145;BME280;58812;47.698;17.726;2024-03-23T09:00:56;99378.97;;;14.99;62.06
71145;BME280;58812;47.698;17.726;2024-03-23T09:03:25;99379.12;;;14.91;62.98
71145;BME280;58812;47.698;17.726;2024-03-23T09:05:54;99376.03;;;14.94;62.99
71145;BME280;58812;47.698;17.726;2024-03-23T09:08:20;99376.53;;;15.04;62.54
71145;BME280;58812;47.698;17.726;2024-03-23T09:10:47;99368.19;;;14.99;64.15
71145;BME280;58812;47.698;17.726;2024-03-23T09:13:13;99368.34;;;14.91;62.32
71145;BME280;58812;47.698;17.726;2024-03-23T09:15:51;99377.31;;;14.98;63.25
71145;BME280;58812;47.698;17.726;2024-03-23T09:18:21;99368.34;;;14.91;62.73
71145;BME280;58812;47.698;17.726;2024-03-23T09:20:47;99362.34;;;14.89;62.85
71145;BME280;58812;47.698;17.726;2024-03-23T09:23:12;99363.28;;;15.09;64.02
71145;BME280;58812;47.698;17.726;2024-03-23T09:25:38;99362.41;;;15.37;63.02
71145;BME280;58812;47.698;17.726;2024-03-23T09:28:04;99345.44;;;15.08;62.94
71145;BME280;58812;47.698;17.726;2024-03-23T09:30:32;99347.53;;;15.06;63.41
71145;BME280;58812;47.698;17.726;2024-03-23T09:32:57;99345.09;;;14.83;63.75
71145;BME280;58812;47.698;17.726;2024-03-23T09:35:22;99336.59;;;14.86;64.52
71145;BME280;58812;47.698;17.726;2024-03-23T09:37:48;99330.00;;;14.89;64.13
71145;BME280;58812;47.698;17.726;2024-03-23T09:40:13;99326.03;;;14.85;64.44
71145;BME280;58812;47.698;17.726;2024-03-23T09:42:39;99318.41;;;14.95;65.39
71145;BME280;58812;47.698;17.726;2024-03-23T09:45:06;99305.25;;;15.13;64.47
71145;BME280;58812;47.698;17.726;2024-03-23T09:47:34;99310.72;;;15.27;64.66
71145;BME280;58812;47.698;17.726;2024-03-23T09:50:00;99297.81;;;15.22;63.76
71145;BME280;58812;47.698;17.726;2024-03-23T09:52:26;99306.19;;;15.40;63.33
71145;BME280;58812;47.698;17.726;2024-03-23T09:54:51;99307.16;;;15.67;63.54
71145;BME280;58812;47.698;17.726;2024-03-23T09:57:17;99303.78;;;15.59;62.60
71145;BME280;58812;47.698;17.726;2024-03-23T09:59:42;99299.31;;;15.72;62.92
71145;BME280;58812;47.698;17.726;2024-03-23T10:02:08;99286.66;;;15.80;62.25
71145;BME280;58812;47.698;17.726;2024-03-23T10:04:40;99285.59;;;15.81;61.86
71145;BME280;58812;47.698;17.726;2024-03-23T10:07:19;99275.19;;;15.71;62.24
71145;BME280;58812;47.698;17.726;2024-03-23T10:09:45;99271.06;;;15.82;62.55
71145;BME280;58812;47.698;17.726;2024-03-23T10:12:13;99262.75;;;15.70;61.99
71145;BME280;58812;47.698;17.726;2024-03-23T10:14:39;99267.75;;;15.80;62.22
71145;BME280;58812;47.698;17.726;2024-03-23T10:17:22;99271.50;;;15.92;61.92
71145;BME280;58812;47.698;17.726;2024-03-23T10:19:53;99256.56;;;15.89;62.40
71145;BME280;58812;47.698;17.726;2024-03-23T10:22:21;99257.78;;;15.80;61.40
71145;BME280;58812;47.698;17.726;2024-03-23T10:24:48;99254.03;;;15.74;62.03
71145;BME280;58812;47.698;17.726;2024-03-23T10:27:19;99250.53;;;15.81;62.66
71145;BME280;58812;47.698;17.726;2024-03-23T10:29:48;99240.13;;;15.71;63.19
71145;BME280;58812;47.698;17.726;2024-03-23T10:32:16;99238.19;;;15.58;63.93
71145;BME280;58812;47.698;17.726;2024-03-23T10:34:42;99227.66;;;15.63;62.65
71145;BME280;58812;47.698;17.726;2024-03-23T10:37:08;99219.09;;;15.53;62.19
71145;BME280;58812;47.698;17.726;2024-03-23T10:39:39;99221.44;;;15.63;62.34
71145;BME280;58812;47.698;17.726;2024-03-23T10:42:08;99212.12;;;15.72;62.31
71145;BME280;58812;47.698;17.726;2024-03-23T10:44:37;99205.03;;;15.64;62.05
71145;BME280;58812;47.698;17.726;2024-03-23T10:47:05;99207.34;;;15.67;62.59
71145;BME280;58812;47.698;17.726;2024-03-23T10:49:32;99207.94;;;15.63;63.47
71145;BME280;58812;47.698;17.726;2024-03-23T10:52:03;99193.59;;;15.56;62.27
71145;BME280;58812;47.698;17.726;2024-03-23T10:54:30;99179.66;;;15.52;62.54
71145;BME280;58812;47.698;17.726;2024-03-23T10:57:09;99181.97;;;15.62;62.45
71145;BME280;58812;47.698;17.726;2024-03-23T10:59:37;99179.28;;;15.62;62.97
71145;BME280;58812;47.698;17.726;2024-03-23T11:02:03;99175.09;;;15.59;62.55
71145;BME280;58812;47.698;17.726;2024-03-23T11:04:30;99173.88;;;15.48;61.66
71145;BME280;58812;47.698;17.726;2024-03-23T11:06:56;99169.69;;;15.46;62.73
71145;BME280;58812;47.698;17.726;2024-03-23T11:14:49;99155.37;;;15.45;62.88
71145;BME280;58812;47.698;17.726;2024-03-23T11:17:23;99153.34;;;15.54;63.04
71145;BME280;58812;47.698;17.726;2024-03-23T11:20:01;99148.78;;;15.61;63.41
71145;BME280;58812;47.698;17.726;2024-03-23T11:22:44;99137.41;;;15.72;62.24
71145;BME280;58812;47.698;17.726;2024-03-23T11:25:16;99136.75;;;15.70;62.47
71145;BME280;58812;47.698;17.726;2024-03-23T11:27:45;99143.19;;;15.76;61.59
71145;BME280;58812;47.698;17.726;2024-03-23T11:32:44;99124.09;;;16.04;61.76
71145;BME280;58812;47.698;17.726;2024-03-23T11:35:10;99119.66;;;16.29;61.77
71145;BME280;58812;47.698;17.726;2024-03-23T11:37:37;99103.91;;;16.26;60.54
71145;BME280;58812;47.698;17.726;2024-03-23T11:40:19;99104.91;;;16.39;60.24
71145;BME280;58812;47.698;17.726;2024-03-23T11:42:44;99097.19;;;16.42;59.41
71145;BME280;58812;47.698;17.726;2024-03-23T11:45:10;99087.75;;;16.71;58.67
71145;BME280;58812;47.698;17.726;2024-03-23T11:47:36;99082.34;;;16.71;58.55
71145;BME280;58812;47.698;17.726;2024-03-23T11:50:01;99075.22;;;16.83;57.92
71145;BME280;58812;47.698;17.726;2024-03-23T11:52:26;99074.75;;;16.93;58.82
71145;BME280;58812;47.698;17.726;2024-03-23T11:55:03;99071.37;;;17.04;58.70
71145;BME280;58812;47.698;17.726;2024-03-23T11:57:29;99068.28;;;17.32;57.68
71145;BME280;58812;47.698;17.726;2024-03-23T11:59:55;99061.09;;;17.45;56.16
71145;BME280;58812;47.698;17.726;2024-03-23T12:02:20;99049.63;;;17.49;56.68
71145;BME280;58812;47.698;17.726;2024-03-23T12:04:45;99047.19;;;17.41;56.11
71145;BME280;58812;47.698;17.726;2024-03-23T12:09:37;99047.13;;;17.48;55.65
71145;BME280;58812;47.698;17.726;2024-03-23T12:12:11;99041.22;;;17.57;55.54
71145;BME280;58812;47.698;17.726;2024-03-23T12:14:38;99036.69;;;17.26;54.07
71145;BME280;58812;47.698;17.726;2024-03-23T12:19:35;99027.59;;;17.46;54.79
71145;BME280;58812;47.698;17.726;2024-03-23T12:22:03;99022.47;;;17.38;53.49
71145;BME280;58812;47.698;17.726;2024-03-23T12:24:29;99026.03;;;17.31;53.83
71145;BME280;58812;47.698;17.726;2024-03-23T12:26:54;99028.19;;;17.23;53.77
71145;BME280;58812;47.698;17.726;2024-03-23T12:29:20;99030.88;;;17.23;54.15
71145;BME280;58812;47.698;17.726;2024-03-23T12:31:45;99020.47;;;17.26;53.58
71145;BME280;58812;47.698;17.726;2024-03-23T12:34:11;99027.19;;;17.42;54.17
71145;BME280;58812;47.698;17.726;2024-03-23T12:36:36;99022.34;;;17.51;55.15
71145;BME280;58812;47.698;17.726;2024-03-23T12:39:02;99018.56;;;17.52;53.74
71145;BME280;58812;47.698;17.726;2024-03-23T12:41:27;99009.87;;;17.50;53.66
71145;BME280;58812;47.698;17.726;2024-03-23T12:43:52;99014.38;;;17.56;54.44
71145;BME280;58812;47.698;17.726;2024-03-23T12:46:18;99009.72;;;17.63;55.11
71145;BME280;58812;47.698;17.726;2024-03-23T12:48:46;99010.56;;;17.63;55.45
71145;BME280;58812;47.698;17.726;2024-03-23T12:51:12;99001.44;;;17.58;55.14
71145;BME280;58812;47.698;17.726;2024-03-23T12:53:37;99009.03;;;17.49;53.77
71145;BME280;58812;47.698;17.726;2024-03-23T12:56:03;99003.22;;;17.46;54.50
71145;BME280;58812;47.698;17.726;2024-03-23T12:58:28;99005.34;;;17.44;54.89
71145;BME280;58812;47.698;17.726;2024-03-23T13:00:54;99008.19;;;17.49;54.56
71145;BME280;58812;47.698;17.726;2024-03-23T13:03:19;99008.56;;;17.52;54.53
71145;BME280;58812;47.698;17.726;2024-03-23T13:05:51;99014.00;;;17.52;54.73
71145;BME280;58812;47.698;17.726;2024-03-23T13:08:17;99012.44;;;17.63;54.82
71145;BME280;58812;47.698;17.726;2024-03-23T13:10:42;99014.06;;;17.89;55.12
71145;BME280;58812;47.698;17.726;2024-03-23T13:13:08;99002.87;;;18.04;54.46
71145;BME280;58812;47.698;17.726;2024-03-23T13:15:33;99002.78;;;18.29;53.88
71145;BME280;58812;47.698;17.726;2024-03-23T13:17:59;98999.75;;;18.37;52.80
71145;BME280;58812;47.698;17.726;2024-03-23T13:20:24;98995.75;;;18.58;52.46
71145;BME280;58812;47.698;17.726;2024-03-23T13:22:49;98997.00;;;18.74;51.60
71145;BME280;58812;47.698;17.726;2024-03-23T13:25:17;98988.03;;;18.73;52.25
71145;BME280;58812;47.698;17.726;2024-03-23T13:27:44;98995.75;;;18.58;52.31
71145;BME280;58812;47.698;17.726;2024-03-23T13:30:10;98993.03;;;18.76;50.89
71145;BME280;58812;47.698;17.726;2024-03-23T13:32:35;98990.22;;;18.83;51.25
71145;BME280;58812;47.698;17.726;2024-03-23T13:35:01;98990.88;;;18.48;50.28
71145;BME280;58812;47.698;17.726;2024-03-23T13:37:26;98989.03;;;18.60;51.14
71145;BME280;58812;47.698;17.726;2024-03-23T13:39:52;98981.88;;;18.66;50.44
71145;BME280;58812;47.698;17.726;2024-03-23T13:42:17;98988.56;;;18.82;50.14
71145;BME280;58812;47.698;17.726;2024-03-23T13:44:43;98985.88;;;18.93;49.06
71145;BME280;58812;47.698;17.726;2024-03-23T13:47:08;98989.50;;;19.41;48.43
71145;BME280;58812;47.698;17.726;2024-03-23T13:49:34;98988.41;;;19.30;46.77
71145;BME280;58812;47.698;17.726;2024-03-23T13:52:00;98982.16;;;19.18;47.68
71145;BME280;58812;47.698;17.726;2024-03-23T13:54:26;98985.53;;;19.02;47.19